createdAt,value
2018-04-02T00:00:47.246Z,86.37
2018-04-02T00:01:46.975Z,86.47
2018-04-02T00:02:47.215Z,85.61
2018-04-02T00:03:47.195Z,85.71
2018-04-02T00:04:47.187Z,85.99
2018-04-02T00:05:46.903Z,87.04
2018-04-02T00:06:47.148Z,87.13
2018-04-02T00:07:47.131Z,87.23
2018-04-02T00:08:47.111Z,87.23
2018-04-02T00:09:47.092Z,87.51
2018-04-02T00:10:47.075Z,87.32
2018-04-02T00:11:47.058Z,87.98
2018-04-02T00:12:47.042Z,87.98
2018-04-02T00:13:46.766Z,88.45
2018-04-02T00:14:46.749Z,88.64
2018-04-02T00:15:46.989Z,88.83
2018-04-02T00:16:46.984Z,88.93
2018-04-02T00:17:46.697Z,88.64
2018-04-02T00:18:46.941Z,89.21
2018-04-02T00:19:46.663Z,88.93
2018-04-02T00:20:46.902Z,89.21
2018-04-02T00:21:46.631Z,89.21
2018-04-02T00:22:46.872Z,88.36
2018-04-02T00:23:46.852Z,88.74
2018-04-02T00:24:46.836Z,88.45
2018-04-02T00:25:46.560Z,87.79
2018-04-02T00:26:46.543Z,87.41
2018-04-02T00:27:46.526Z,87.41
2018-04-02T00:28:46.766Z,86.94
2018-04-02T00:29:46.748Z,87.32
2018-04-02T00:30:46.742Z,87.23
2018-04-02T00:31:46.722Z,87.04
2018-04-02T00:32:46.445Z,86.94
2018-04-02T00:33:46.424Z,86.47
2018-04-02T00:34:46.669Z,86.66
2018-04-02T00:35:46.646Z,86.66
2018-04-02T00:36:46.374Z,86.47
2018-04-02T00:37:46.613Z,86.56
2018-04-02T00:38:46.608Z,87.32
2018-04-02T00:39:46.579Z,87.13
2018-04-02T00:40:46.564Z,86.37
2018-04-02T00:41:46.549Z,86.85
2018-04-02T00:42:46.271Z,86.75
2018-04-02T00:43:46.513Z,85.71
2018-04-02T00:44:46.237Z,84.95
2018-04-02T00:45:46.477Z,84.58
2018-04-02T00:46:46.465Z,84.01
2018-04-02T00:47:46.185Z,84.01
2018-04-02T00:48:46.207Z,83.25
2018-04-02T00:49:46.408Z,82.68
2018-04-02T00:50:46.390Z,81.98
2018-04-02T00:51:46.117Z,80.84
2018-04-02T00:52:46.100Z,81.13
2018-04-02T00:53:46.341Z,79.8
2018-04-02T00:54:46.066Z,79.14
2018-04-02T00:55:46.306Z,78.58
2018-04-02T00:56:46.289Z,78.58
2018-04-02T00:57:46.013Z,78.39
2018-04-02T00:58:46.255Z,77.44
2018-04-02T00:59:45.981Z,76.68
2018-04-02T01:00:46.217Z,75.36
2018-04-02T01:01:45.945Z,74.32
2018-04-02T01:02:46.187Z,73.47
2018-04-02T01:03:45.913Z,72.24
2018-04-02T01:04:46.154Z,71.2
2018-04-02T01:05:46.133Z,69.68
2018-04-02T01:06:46.118Z,68.65
2018-04-02T01:07:46.100Z,67.89
2018-04-02T01:08:45.824Z,66.28
2018-04-02T01:09:45.807Z,64.11
2018-04-02T01:10:45.790Z,63.35
2018-04-02T01:11:46.028Z,63.07
2018-04-02T01:12:46.012Z,61.93
2018-04-02T01:13:45.995Z,61.27
2018-04-02T01:14:45.980Z,61.65
2018-04-02T01:15:45.967Z,61.74
2018-04-02T01:16:45.942Z,61.27
2018-04-02T01:17:45.926Z,61.46
2018-04-02T01:18:45.915Z,60.89
2018-04-02T01:19:45.632Z,61.18
2018-04-02T01:20:45.616Z,61.18
2018-04-02T01:21:45.858Z,61.27
2018-04-02T01:22:45.837Z,62.31
2018-04-02T01:23:45.838Z,62.5
2018-04-02T01:24:45.550Z,63.26
2018-04-02T01:25:45.786Z,63.54
2018-04-02T01:26:45.767Z,63.26
2018-04-02T01:27:45.750Z,63.16
2018-04-02T01:28:45.737Z,63.35
2018-04-02T01:29:45.715Z,63.73
2018-04-02T01:30:45.441Z,63.54
2018-04-02T01:31:45.426Z,63.54
2018-04-02T01:32:45.664Z,63.54
2018-04-02T01:33:45.645Z,63.73
2018-04-02T01:34:45.629Z,63.82
2018-04-02T01:35:45.610Z,64.01
2018-04-02T01:36:45.337Z,64.48
2018-04-02T01:37:45.577Z,64.11
2018-04-02T01:38:45.301Z,64.39
2018-04-02T01:39:45.284Z,64.11
2018-04-02T01:40:45.267Z,64.71
2018-04-02T01:41:45.508Z,64.77
2018-04-02T01:42:45.491Z,64.77
2018-04-02T01:43:45.475Z,65.09
2018-04-02T01:44:45.456Z,65.18
2018-04-02T01:45:45.182Z,65.75
2018-04-02T01:46:45.421Z,65.56
2018-04-02T01:47:45.147Z,65.84
2018-04-02T01:48:45.388Z,66.09
2018-04-02T01:49:45.370Z,66.6
2018-04-02T01:50:45.097Z,66.98
2018-04-02T01:51:45.334Z,67.07
2018-04-02T01:52:45.316Z,66.79
2018-04-02T01:53:45.301Z,67.36
2018-04-02T01:54:45.285Z,67.45
2018-04-02T01:55:45.266Z,67.36
2018-04-02T01:56:45.249Z,67.45
2018-04-02T01:57:44.973Z,68.4
2018-04-02T01:58:44.956Z,68.4
2018-04-02T01:59:44.943Z,68.3
2018-04-02T02:00:45.181Z,68.02
2018-04-02T02:01:45.163Z,68.49
2018-04-02T02:02:45.145Z,69.15
2018-04-02T02:03:45.127Z,68.68
2018-04-02T02:04:44.853Z,68.77
2018-04-02T02:05:45.093Z,69.44
2018-04-02T02:06:45.077Z,69.53
2018-04-02T02:07:45.066Z,69.91
2018-04-02T02:08:44.785Z,70.76
2018-04-02T02:09:45.031Z,70.39
2018-04-02T02:10:45.015Z,71.71
2018-04-02T02:11:44.997Z,72.56
2018-04-02T02:12:44.975Z,73.13
2018-04-02T02:13:44.956Z,73.22
2018-04-02T02:14:44.681Z,73.41
2018-04-02T02:15:44.665Z,72.56
2018-04-02T02:16:44.648Z,72.56
2018-04-02T02:17:44.629Z,72.47
2018-04-02T02:18:44.612Z,73.41
2018-04-02T02:19:44.852Z,73.41
2018-04-02T02:20:44.835Z,73.5
2018-04-02T02:21:44.820Z,73.5
2018-04-02T02:22:44.547Z,73.79
2018-04-02T02:23:44.786Z,73.6
2018-04-02T02:24:44.771Z,73.98
2018-04-02T02:25:44.494Z,73.69
2018-04-02T02:26:44.476Z,73.22
2018-04-02T02:27:44.717Z,73.41
2018-04-02T02:28:44.440Z,73.41
2018-04-02T02:29:44.681Z,73.32
2018-04-02T02:30:44.666Z,73.5
2018-04-02T02:31:44.658Z,73.37
2018-04-02T02:32:44.638Z,73.37
2018-04-02T02:33:44.638Z,73.28
2018-04-02T02:34:44.600Z,72.9
2018-04-02T02:35:44.807Z,72.52
2018-04-02T02:36:44.304Z,72.24
2018-04-02T02:37:44.288Z,71.86
2018-04-02T02:38:44.529Z,71.39
2018-04-02T02:39:44.516Z,70.92
2018-04-02T02:40:44.506Z,70.44
2018-04-02T02:41:44.495Z,70.25
2018-04-02T02:42:44.465Z,69.97
2018-04-02T02:43:44.447Z,69.78
2018-04-02T02:44:44.430Z,69.31
2018-04-02T02:45:44.415Z,68.74
2018-04-02T02:46:44.133Z,68.17
2018-04-02T02:47:44.375Z,68.27
2018-04-02T02:48:44.363Z,68.08
2018-04-02T02:49:44.337Z,68.17
2018-04-02T02:50:44.331Z,68.27
2018-04-02T02:51:44.304Z,67.98
2018-04-02T02:52:44.032Z,68.27
2018-04-02T02:53:44.014Z,68.08
2018-04-02T02:54:44.257Z,67.98
2018-04-02T02:55:43.980Z,67.32
2018-04-02T02:56:43.961Z,67.32
2018-04-02T02:57:44.200Z,67.7
2018-04-02T02:58:44.186Z,67.22
2018-04-02T02:59:44.168Z,66.85
2018-04-02T03:00:43.892Z,66.66
2018-04-02T03:01:43.875Z,66
2018-04-02T03:02:43.857Z,66.19
2018-04-02T03:03:43.838Z,65.81
2018-04-02T03:04:44.079Z,65.62
2018-04-02T03:05:43.807Z,65.72
2018-04-02T03:06:44.044Z,65.72
2018-04-02T03:07:44.029Z,64.96
2018-04-02T03:08:43.751Z,64.86
2018-04-02T03:09:43.993Z,64.48
2018-04-02T03:10:43.981Z,64.48
2018-04-02T03:11:43.700Z,64.39
2018-04-02T03:12:43.938Z,64.17
2018-04-02T03:13:43.664Z,63.64
2018-04-02T03:14:43.907Z,63.51
2018-04-02T03:15:43.888Z,63.04
2018-04-02T03:16:43.869Z,61.71
2018-04-02T03:17:43.856Z,61.71
2018-04-02T03:18:43.845Z,61.61
2018-04-02T03:19:43.559Z,60.67
2018-04-02T03:20:43.799Z,60.01
2018-04-02T03:21:43.781Z,59.82
2018-04-02T03:22:43.777Z,59.16
2018-04-02T03:23:43.488Z,59.35
2018-04-02T03:24:43.729Z,59.92
2018-04-02T03:25:43.456Z,60.04
2018-04-02T03:26:43.694Z,60.23
2018-04-02T03:27:43.733Z,60.23
2018-04-02T03:28:43.402Z,60.42
2018-04-02T03:29:43.385Z,61.27
2018-04-02T03:30:43.635Z,61.83
2018-04-02T03:31:43.367Z,62.97
2018-04-02T03:32:43.591Z,63.16
2018-04-02T03:33:43.575Z,63.54
2018-04-02T03:34:43.554Z,64.48
2018-04-02T03:35:43.534Z,64.86
2018-04-02T03:36:43.517Z,65.43
2018-04-02T03:37:43.499Z,66
2018-04-02T03:38:43.488Z,66.85
2018-04-02T03:39:43.464Z,67.32
2018-04-02T03:40:43.190Z,67.98
2018-04-02T03:41:43.434Z,68.33
2018-04-02T03:42:43.410Z,67.85
2018-04-02T03:43:43.399Z,67.19
2018-04-02T03:44:43.379Z,67.29
2018-04-02T03:45:43.361Z,66.63
2018-04-02T03:46:43.343Z,66.06
2018-04-02T03:47:43.325Z,66.06
2018-04-02T03:48:43.307Z,66.06
2018-04-02T03:49:43.289Z,65.3
2018-04-02T03:50:43.274Z,65.59
2018-04-02T03:51:43.254Z,65.02
2018-04-02T03:52:42.976Z,65.11
2018-04-02T03:53:43.216Z,64.45
2018-04-02T03:54:43.202Z,64.45
2018-04-02T03:55:42.923Z,63.98
2018-04-02T03:56:43.163Z,63.7
2018-04-02T03:57:43.146Z,63.04
2018-04-02T03:58:43.127Z,62.75
2018-04-02T03:59:43.109Z,62.28
2018-04-02T04:00:42.835Z,61.99
2018-04-02T04:01:43.077Z,61.99
2018-04-02T04:02:43.058Z,61.8
2018-04-02T04:03:43.038Z,60.96
2018-04-02T04:04:43.019Z,61.15
2018-04-02T04:05:43.213Z,60.67
2018-04-02T04:06:42.726Z,59.92
2018-04-02T04:07:42.708Z,59.06
2018-04-02T04:08:42.692Z,58.59
2018-04-02T04:09:42.934Z,57.84
2018-04-02T04:10:42.910Z,56.23
2018-04-02T04:11:42.894Z,56.13
2018-04-02T04:12:42.875Z,55.38
2018-04-02T04:13:42.857Z,55
2018-04-02T04:14:42.838Z,54.81
2018-04-02T04:15:42.566Z,54.91
2018-04-02T04:16:42.805Z,55.29
2018-04-02T04:17:42.791Z,55.1
2018-04-02T04:18:42.778Z,54.81
2018-04-02T04:19:42.491Z,54.15
2018-04-02T04:20:42.473Z,54.06
2018-04-02T04:21:42.454Z,52.92
2018-04-02T04:22:42.694Z,52.36
2018-04-02T04:23:42.677Z,52.45
2018-04-02T04:24:42.657Z,52.07
2018-04-02T04:25:42.381Z,51.79
2018-04-02T04:26:42.621Z,51.79
2018-04-02T04:27:42.345Z,51.5
2018-04-02T04:28:42.585Z,51.6
2018-04-02T04:29:42.566Z,51.41
2018-04-02T04:30:42.549Z,51.98
2018-04-02T04:31:42.532Z,52.55
2018-04-02T04:32:42.515Z,52.55
2018-04-02T04:33:42.500Z,52.26
2018-04-02T04:34:42.477Z,52.83
2018-04-02T04:35:42.458Z,53.77
2018-04-02T04:36:42.445Z,54.91
2018-04-02T04:37:42.422Z,55.38
2018-04-02T04:38:42.413Z,55.76
2018-04-02T04:39:42.401Z,56.89
2018-04-02T04:40:42.368Z,57.37
2018-04-02T04:41:42.355Z,57.37
2018-04-02T04:42:42.075Z,57.46
2018-04-02T04:43:42.314Z,56.8
2018-04-02T04:44:42.298Z,56.32
2018-04-02T04:45:42.279Z,56.61
2018-04-02T04:46:42.261Z,56.51
2018-04-02T04:47:41.985Z,56.04
2018-04-02T04:48:41.967Z,56.23
2018-04-02T04:49:41.949Z,56.04
2018-04-02T04:50:41.932Z,56.13
2018-04-02T04:51:41.914Z,56.42
2018-04-02T04:52:42.157Z,56.42
2018-04-02T04:53:41.879Z,56.13
2018-04-02T04:54:41.861Z,56.32
2018-04-02T04:55:41.843Z,56.23
2018-04-02T04:56:42.084Z,56.32
2018-04-02T04:57:42.064Z,56.13
2018-04-02T04:58:42.047Z,56.16
2018-04-02T04:59:42.031Z,56.26
2018-04-02T05:00:42.018Z,56.26
2018-04-02T05:01:42.002Z,56.16
2018-04-02T05:02:41.975Z,56.26
2018-04-02T05:03:41.701Z,56.26
2018-04-02T05:04:41.939Z,56.16
2018-04-02T05:05:41.923Z,56.26
2018-04-02T05:06:41.904Z,56.54
2018-04-02T05:07:41.887Z,57.2
2018-04-02T05:08:41.613Z,57.58
2018-04-02T05:09:41.594Z,57.68
2018-04-02T05:10:41.575Z,58.15
2018-04-02T05:11:41.816Z,58.62
2018-04-02T05:12:41.798Z,58.34
2018-04-02T05:13:41.800Z,58.62
2018-04-02T05:14:41.766Z,59.09
2018-04-02T05:15:41.755Z,59.95
2018-04-02T05:16:41.470Z,60.23
2018-04-02T05:17:41.493Z,60.42
2018-04-02T05:18:41.696Z,60.7
2018-04-02T05:19:41.675Z,61.27
2018-04-02T05:20:41.656Z,61.74
2018-04-02T05:21:41.639Z,61.74
2018-04-02T05:22:41.627Z,61.74
2018-04-02T05:23:41.346Z,62.02
2018-04-02T05:24:41.585Z,62.69
2018-04-02T05:25:41.313Z,62.4
2018-04-02T05:26:41.554Z,62.97
2018-04-02T05:27:41.278Z,63.54
2018-04-02T05:28:41.519Z,64.2
2018-04-02T05:29:41.500Z,64.86
2018-04-02T05:30:41.226Z,65.43
2018-04-02T05:31:41.468Z,66
2018-04-02T05:32:41.456Z,66.38
2018-04-02T05:33:41.432Z,67.41
2018-04-02T05:34:41.418Z,67.32
2018-04-02T05:35:41.398Z,67.51
2018-04-02T05:36:41.122Z,67.79
2018-04-02T05:37:41.107Z,67.93
2018-04-02T05:38:41.086Z,67.93
2018-04-02T05:39:41.365Z,68.21
2018-04-02T05:40:41.312Z,68.12
2018-04-02T05:41:41.035Z,68.4
2018-04-02T05:42:41.021Z,68.87
2018-04-02T05:43:41.053Z,69.34
2018-04-02T05:44:41.245Z,69.44
2018-04-02T05:45:41.223Z,70.48
2018-04-02T05:46:41.205Z,70.76
2018-04-02T05:47:40.931Z,71.71
2018-04-02T05:48:40.916Z,71.99
2018-04-02T05:49:41.155Z,71.99
2018-04-02T05:50:40.882Z,73.03
2018-04-02T05:51:41.122Z,72.56
2018-04-02T05:52:41.107Z,73.03
2018-04-02T05:53:41.086Z,76.91
2018-04-02T05:54:40.829Z,78.14
2018-04-02T05:55:41.056Z,78.33
2018-04-02T05:56:41.045Z,78.61
2018-04-02T05:57:40.761Z,79.66
2018-04-02T05:58:41.003Z,79.47
2018-04-02T05:59:40.735Z,80.13
2018-04-02T06:00:40.966Z,81.45
2018-04-02T06:01:40.951Z,82.12
2018-04-02T06:02:40.935Z,82.68
2018-04-02T06:03:40.918Z,83.15
2018-04-02T06:04:40.644Z,83.06
2018-04-02T06:05:40.625Z,82.4
2018-04-02T06:06:40.609Z,81.74
2018-04-02T06:07:40.849Z,83.06
2018-04-02T06:08:40.830Z,84.1
2018-04-02T06:09:40.558Z,84.61
2018-04-02T06:10:40.799Z,84.39
2018-04-02T06:11:40.783Z,85.42
2018-04-02T06:12:40.781Z,84.95
2018-04-02T06:13:40.492Z,85.61
2018-04-02T06:14:40.733Z,85.75
2018-04-02T06:15:40.459Z,86.32
2018-04-02T06:16:40.788Z,86.04
2018-04-02T06:17:40.682Z,86.13
2018-04-02T06:18:40.408Z,85.85
2018-04-02T06:19:40.650Z,85.94
2018-04-02T06:20:40.633Z,86.79
2018-04-02T06:21:40.360Z,87.84
2018-04-02T06:22:40.343Z,88.78
2018-04-02T06:23:40.326Z,88.78
2018-04-02T06:24:40.567Z,89.54
2018-04-02T06:25:40.550Z,90.48
2018-04-02T06:26:40.536Z,90.11
2018-04-02T06:27:40.266Z,90.11
2018-04-02T06:28:40.504Z,89.82
2018-04-02T06:29:40.486Z,90.58
2018-04-02T06:30:40.470Z,90.86
2018-04-02T06:31:40.567Z,91.81
2018-04-02T06:32:40.437Z,92.76
2018-04-02T06:33:40.420Z,92.57
2018-04-02T06:34:40.149Z,92.38
2018-04-02T06:35:40.391Z,92.38
2018-04-02T06:36:40.371Z,93.27
2018-04-02T06:37:40.364Z,93.32
2018-04-02T06:38:40.085Z,94.7
2018-04-02T06:39:40.334Z,94.89
2018-04-02T06:40:40.310Z,95.64
2018-04-02T06:41:40.037Z,95.55
2018-04-02T06:42:40.278Z,95.55
2018-04-02T06:43:40.260Z,94.42
2018-04-02T06:44:40.242Z,94.04
2018-04-02T06:45:40.228Z,93.46
2018-04-02T06:46:40.215Z,93.84
2018-04-02T06:47:40.198Z,94.89
2018-04-02T06:48:40.186Z,95.36
2018-04-02T06:49:39.907Z,95.64
2018-04-02T06:50:40.148Z,95.64
2018-04-02T06:51:39.875Z,95.74
2018-04-02T06:52:40.121Z,95.45
2018-04-02T06:53:39.844Z,94.79
2018-04-02T06:54:40.088Z,93.75
2018-04-02T06:55:40.069Z,93.37
2018-04-02T06:56:39.798Z,94.89
2018-04-02T06:57:39.780Z,95.74
2018-04-02T06:58:40.032Z,95.64
2018-04-02T06:59:39.749Z,95.36
2018-04-02T07:00:39.734Z,94.98
2018-04-02T07:01:39.977Z,95.03
2018-04-02T07:02:39.963Z,95.03
2018-04-02T07:03:39.944Z,95.88
2018-04-02T07:04:39.930Z,95.5
2018-04-02T07:05:39.915Z,95.69
2018-04-02T07:06:39.644Z,97.21
2018-04-02T07:07:39.625Z,97.3
2018-04-02T07:08:39.610Z,97.78
2018-04-02T07:09:39.855Z,98.82
2018-04-02T07:10:39.840Z,98.72
2018-04-02T07:11:39.821Z,97.87
2018-04-02T07:12:39.549Z,97.11
2018-04-02T07:13:39.789Z,97.49
2018-04-02T07:14:39.517Z,97.4
2018-04-02T07:15:39.504Z,97.3
2018-04-02T07:16:39.746Z,97.87
2018-04-02T07:17:39.472Z,97.59
2018-04-02T07:18:39.457Z,97.49
2018-04-02T07:19:39.443Z,97.3
2018-04-02T07:20:39.430Z,96.92
2018-04-02T07:21:39.412Z,96.92
2018-04-02T07:22:39.653Z,96.45
2018-04-02T07:23:39.644Z,95.88
2018-04-02T07:24:39.366Z,95.98
2018-04-02T07:25:39.352Z,95.6
2018-04-02T07:26:39.336Z,94.74
2018-04-02T07:27:39.586Z,93.61
2018-04-02T07:28:39.564Z,94.08
2018-04-02T07:29:39.290Z,93.89
2018-04-02T07:30:39.537Z,94.37
2018-04-02T07:31:39.262Z,93.61
2018-04-02T07:32:39.501Z,94.18
2018-04-02T07:33:39.230Z,93.42
2018-04-02T07:34:39.475Z,93.04
2018-04-02T07:35:39.456Z,93.23
2018-04-02T07:36:39.186Z,92.76
2018-04-02T07:37:39.170Z,93.99
2018-04-02T07:38:39.155Z,93.23
2018-04-02T07:39:39.399Z,92.28
2018-04-02T07:40:39.381Z,93.32
2018-04-02T07:41:39.115Z,92.66
2018-04-02T07:42:39.349Z,92.28
2018-04-02T07:43:39.080Z,92.19
2018-04-02T07:44:39.064Z,92.28
2018-04-02T07:45:39.308Z,92.76
2018-04-02T07:46:39.349Z,92.66
2018-04-02T07:47:39.019Z,92.28
2018-04-02T07:48:39.006Z,91.9
2018-04-02T07:49:39.257Z,92.38
2018-04-02T07:50:39.343Z,91.14
2018-04-02T07:51:38.960Z,90.77
2018-04-02T07:52:39.205Z,90.77
2018-04-02T07:53:39.188Z,92.23
2018-04-02T07:54:39.174Z,92.42
2018-04-02T07:55:38.902Z,92.04
2018-04-02T07:56:38.919Z,93.75
2018-04-02T07:57:39.134Z,94.13
2018-04-02T07:58:38.857Z,94.13
2018-04-02T07:59:39.102Z,93.75
2018-04-02T08:00:39.086Z,92.8
2018-04-02T08:01:38.814Z,93.18
2018-04-02T08:02:39.058Z,93.18
2018-04-02T08:03:38.786Z,93.27
2018-04-02T08:04:39.033Z,93.94
2018-04-02T08:05:38.755Z,94.51
2018-04-02T08:06:38.744Z,94.42
2018-04-02T08:07:38.726Z,94.04
2018-04-02T08:08:38.740Z,94.42
2018-04-02T08:09:38.956Z,95.17
2018-04-02T08:10:38.946Z,94.13
2018-04-02T08:11:38.928Z,94.13
2018-04-02T08:12:38.660Z,94.23
2018-04-02T08:13:38.895Z,93.37
2018-04-02T08:14:38.880Z,93.46
2018-04-02T08:15:38.610Z,92.99
2018-04-02T08:16:38.595Z,93.08
2018-04-02T08:17:38.844Z,92.33
2018-04-02T08:18:38.568Z,92.23
2018-04-02T08:19:38.551Z,92.71
2018-04-02T08:20:38.537Z,91.76
2018-04-02T08:21:38.783Z,94.08
2018-04-02T08:22:38.769Z,94.74
2018-04-02T08:23:38.494Z,94.18
2018-04-02T08:24:38.740Z,94.18
2018-04-02T08:25:38.728Z,94.74
2018-04-02T08:26:38.713Z,94.93
2018-04-02T08:27:38.440Z,97.21
2018-04-02T08:28:38.681Z,97.4
2018-04-02T08:29:38.669Z,97.21
2018-04-02T08:30:38.396Z,96.92
2018-04-02T08:31:38.644Z,98.3
2018-04-02T08:32:38.391Z,97.55
2018-04-02T08:33:38.617Z,97.92
2018-04-02T08:34:38.601Z,98.68
2018-04-02T08:35:38.328Z,96.78
2018-04-02T08:36:38.576Z,98.02
2018-04-02T08:37:38.300Z,98.92
2018-04-02T08:38:38.359Z,99.11
2018-04-02T08:39:38.535Z,98.83
2018-04-02T08:40:38.519Z,99.49
2018-04-02T08:41:38.253Z,99.99
2018-04-02T08:42:38.504Z,99.99
2018-04-02T08:43:38.479Z,99.87
2018-04-02T08:44:38.475Z,99.99
2018-04-02T08:45:38.454Z,99.99
2018-04-02T08:46:38.189Z,99.99
2018-04-02T08:47:38.427Z,99.99
2018-04-02T08:48:38.156Z,99.99
2018-04-02T08:49:38.148Z,99.99
2018-04-02T08:50:38.391Z,99.99
2018-04-02T08:51:38.384Z,99.99
2018-04-02T08:52:38.105Z,99.99
2018-04-02T08:53:38.093Z,99.99
2018-04-02T08:54:38.340Z,99.99
2018-04-02T08:55:38.072Z,99.99
2018-04-02T08:56:38.094Z,99.99
2018-04-02T08:57:38.307Z,99.99
2018-04-02T08:58:38.031Z,99.99
2018-04-02T08:59:38.023Z,99.99
2018-04-02T09:00:38.314Z,99.99
2018-04-02T09:01:37.995Z,99.99
2018-04-02T09:02:37.982Z,99.99
2018-04-02T09:03:38.226Z,99.99
2018-04-02T09:04:37.959Z,99.99
2018-04-02T09:05:38.203Z,99.99
2018-04-02T09:06:37.933Z,99.99
2018-04-02T09:07:37.920Z,99.99
2018-04-02T09:08:38.168Z,99.99
2018-04-02T09:09:38.160Z,99.99
2018-04-02T09:10:38.143Z,99.92
2018-04-02T09:11:38.131Z,99.44
2018-04-02T09:12:38.117Z,99.16
2018-04-02T09:13:38.106Z,99.99
2018-04-02T09:14:38.098Z,99.99
2018-04-02T09:15:37.825Z,99.99
2018-04-02T09:16:38.072Z,99.99
2018-04-02T09:17:38.194Z,99.99
2018-04-02T09:18:37.788Z,99.99
2018-04-02T09:19:38.032Z,99.99
2018-04-02T09:20:38.022Z,99.99
2018-04-02T09:21:37.751Z,99.99
2018-04-02T09:22:38.052Z,99.99
2018-04-02T09:23:38.009Z,99.99
2018-04-02T09:24:37.981Z,99.99
2018-04-02T09:25:37.703Z,99.99
2018-04-02T09:26:37.958Z,99.99
2018-04-02T09:27:37.937Z,99.99
2018-04-02T09:28:37.926Z,99.99
2018-04-02T09:29:37.913Z,99.99
2018-04-02T09:30:37.900Z,99.99
2018-04-02T09:31:37.888Z,99.3
2018-04-02T09:32:37.876Z,99.11
2018-04-02T09:33:37.864Z,99.21
2018-04-02T09:34:37.853Z,98.74
2018-04-02T09:35:37.589Z,98.07
2018-04-02T09:36:37.830Z,95.51
2018-04-02T09:37:37.819Z,95.79
2018-04-02T09:38:37.550Z,95.79
2018-04-02T09:39:37.536Z,97.12
2018-04-02T09:40:37.525Z,94.93
2018-04-02T09:41:37.774Z,94.93
2018-04-02T09:42:37.760Z,94.65
2018-04-02T09:43:37.488Z,93.89
2018-04-02T09:44:37.733Z,93.7
2018-04-02T09:45:37.722Z,94.18
2018-04-02T09:46:37.709Z,95.41
2018-04-02T09:47:37.644Z,95.12
2018-04-02T09:48:37.442Z,95.7
2018-04-02T09:49:37.418Z,95.51
2018-04-02T09:50:37.404Z,97.31
2018-04-02T09:51:37.659Z,97.03
2018-04-02T09:52:37.642Z,96.55
2018-04-02T09:53:37.648Z,94.65
2018-04-02T09:54:37.622Z,93.79
2018-04-02T09:55:37.612Z,93.7
2018-04-02T09:56:37.593Z,95.22
2018-04-02T09:57:37.581Z,92.32
2018-04-02T09:58:37.311Z,91.56
2018-04-02T09:59:37.568Z,88.9
2018-04-02T10:00:37.548Z,88.13
2018-04-02T10:01:37.275Z,89.47
2018-04-02T10:02:37.523Z,91.08
2018-04-02T10:03:37.253Z,90.89
2018-04-02T10:04:37.811Z,87.47
2018-04-02T10:05:37.229Z,82.57
2018-04-02T10:06:37.484Z,79.68
2018-04-02T10:07:37.469Z,77.87
2018-04-02T10:08:37.454Z,79.68
2018-04-02T10:09:37.186Z,78.63
2018-04-02T10:10:37.188Z,79.96
2018-04-02T10:11:37.163Z,80.15
2018-04-02T10:12:37.409Z,77.87
2018-04-02T10:13:37.140Z,75.45
2018-04-02T10:14:37.386Z,77.17
2018-04-02T10:15:37.473Z,79.44
2018-04-02T10:16:37.363Z,81.01
2018-04-02T10:17:37.358Z,79.11
2018-04-02T10:18:37.359Z,77.11
2018-04-02T10:19:37.341Z,75.78
2018-04-02T10:20:37.061Z,76.73
2018-04-02T10:21:37.309Z,75.96
2018-04-02T10:22:37.299Z,73.11
2018-04-02T10:23:37.286Z,72.74
2018-04-02T10:24:37.017Z,74.73
2018-04-02T10:25:37.266Z,75.78
2018-04-02T10:26:37.253Z,71.31
2018-04-02T10:27:37.240Z,68.84
2018-04-02T10:28:37.230Z,67.13
2018-04-02T10:29:37.329Z,64.27
2018-04-02T10:30:37.208Z,66.46
2018-04-02T10:31:37.200Z,67.82
2018-04-02T10:32:37.189Z,68.77
2018-04-02T10:33:37.177Z,70.1
2018-04-02T10:34:36.906Z,69.15
2018-04-02T10:35:36.899Z,70.01
2018-04-02T10:36:37.144Z,71.82
2018-04-02T10:37:37.134Z,73.69
2018-04-02T10:38:36.864Z,74.92
2018-04-02T10:39:36.854Z,76.48
2018-04-02T10:40:37.101Z,76.57
2018-04-02T10:41:37.090Z,78.67
2018-04-02T10:42:36.822Z,77.91
2018-04-02T10:43:37.079Z,74.48
2018-04-02T10:44:37.059Z,73.53
2018-04-02T10:45:36.790Z,74.39
2018-04-02T10:46:36.790Z,76.1
2018-04-02T10:47:37.027Z,77.05
2018-04-02T10:48:37.103Z,77.05
2018-04-02T10:49:37.005Z,76.01
2018-04-02T10:50:36.996Z,75.81
2018-04-02T10:51:36.728Z,74.67
2018-04-02T10:52:36.974Z,73.06
2018-04-02T10:53:36.711Z,74.01
2018-04-02T10:54:36.698Z,74.39
2018-04-02T10:55:36.945Z,73.72
2018-04-02T10:56:36.932Z,75.43
2018-04-02T10:57:36.666Z,74.48
2018-04-02T10:58:36.913Z,75.91
2018-04-02T10:59:36.935Z,75.05
2018-04-02T11:00:36.893Z,76.57
2018-04-02T11:01:36.630Z,74.92
2018-04-02T11:02:36.875Z,74.63
2018-04-02T11:03:36.604Z,76.54
2018-04-02T11:04:36.852Z,77.77
2018-04-02T11:05:36.582Z,76.73
2018-04-02T11:06:36.831Z,80.24
2018-04-02T11:07:36.817Z,80.44
2018-04-02T11:08:36.807Z,77.24
2018-04-02T11:09:36.801Z,72.58
2018-04-02T11:10:36.785Z,70.3
2018-04-02T11:11:36.776Z,66.84
2018-04-02T11:12:36.508Z,69.88
2018-04-02T11:13:36.971Z,73.02
2018-04-02T11:14:36.743Z,73.21
2018-04-02T11:15:36.736Z,73.49
2018-04-02T11:16:36.722Z,70.74
2018-04-02T11:17:36.714Z,73.59
2018-04-02T11:18:36.700Z,70.45
2018-04-02T11:19:36.688Z,74.26
2018-04-02T11:20:36.679Z,73.4
2018-04-02T11:21:36.669Z,74.63
2018-04-02T11:22:36.660Z,73.02
2018-04-02T11:23:36.646Z,74.73
2018-04-02T11:24:36.378Z,74.26
2018-04-02T11:25:36.624Z,70.1
2018-04-02T11:26:36.615Z,70.39
2018-04-02T11:27:36.605Z,67.73
2018-04-02T11:28:36.591Z,66.02
2018-04-02T11:29:36.323Z,65.25
2018-04-02T11:30:36.575Z,63.26
2018-04-02T11:31:36.560Z,63.83
2018-04-02T11:32:36.290Z,65.73
2018-04-02T11:33:36.280Z,67.63
2018-04-02T11:34:36.270Z,67.19
2018-04-02T11:35:36.260Z,64.9
2018-04-02T11:36:36.254Z,61.48
2018-04-02T11:37:36.515Z,62.34
2018-04-02T11:38:36.228Z,63.6
2018-04-02T11:39:36.482Z,64.47
2018-04-02T11:40:36.207Z,63.32
2018-04-02T11:41:36.201Z,61.7
2018-04-02T11:42:36.444Z,59.92
2018-04-02T11:43:36.178Z,59.89
2018-04-02T11:44:36.424Z,60.49
2018-04-02T11:45:36.165Z,60.59
2018-04-02T11:46:36.409Z,59.16
2018-04-02T11:47:36.140Z,59.64
2018-04-02T11:48:36.386Z,60.11
2018-04-02T11:49:36.120Z,60.97
2018-04-02T11:50:36.111Z,61.73
2018-04-02T11:51:36.361Z,59.92
2018-04-02T11:52:36.351Z,60.4
2018-04-02T11:53:36.339Z,57.64
2018-04-02T11:54:36.331Z,60.49
2018-04-02T11:55:36.321Z,62.21
2018-04-02T11:56:36.054Z,57.82
2018-04-02T11:57:36.045Z,57.92
2018-04-02T11:58:36.296Z,59.74
2018-04-02T11:59:36.285Z,62.12
2018-04-02T12:00:36.022Z,58.78
2018-04-02T12:01:36.010Z,58.21
2018-04-02T12:02:36.257Z,58.11
2018-04-02T12:03:35.991Z,58.78
2018-04-02T12:04:36.244Z,60.08
2018-04-02T12:05:35.972Z,61.13
2018-04-02T12:06:36.221Z,60.08
2018-04-02T12:07:36.218Z,58.18
2018-04-02T12:08:36.202Z,58.15
2018-04-02T12:09:35.936Z,59.86
2018-04-02T12:10:36.189Z,62.24
2018-04-02T12:11:36.180Z,63.48
2018-04-02T12:12:36.175Z,63.76
2018-04-02T12:13:36.161Z,64.21
2018-04-02T12:14:36.145Z,66.39
2018-04-02T12:15:35.880Z,67.1
2018-04-02T12:16:36.127Z,64.78
2018-04-02T12:17:36.149Z,65.67
2018-04-02T12:18:35.851Z,65.86
2018-04-02T12:19:35.847Z,62.91
2018-04-02T12:20:35.841Z,64.05
2018-04-02T12:21:36.164Z,63.8
2018-04-02T12:22:36.081Z,63.23
2018-04-02T12:23:35.805Z,61.51
2018-04-02T12:24:35.794Z,62.94
2018-04-02T12:25:36.042Z,60.37
2018-04-02T12:26:36.037Z,59.23
2018-04-02T12:27:35.765Z,60.18
2018-04-02T12:28:36.015Z,59.83
2018-04-02T12:29:36.005Z,60.02
2018-04-02T12:30:35.996Z,59.74
2018-04-02T12:31:35.986Z,59.42
2018-04-02T12:32:35.976Z,59.8
2018-04-02T12:33:35.737Z,61.22
2018-04-02T12:34:35.958Z,60.66
2018-04-02T12:35:35.956Z,61.42
2018-04-02T12:36:35.683Z,61.13
2018-04-02T12:37:35.672Z,61.13
2018-04-02T12:38:35.980Z,60.46
2018-04-02T12:39:35.911Z,61.8
2018-04-02T12:40:35.924Z,62.18
2018-04-02T12:41:35.896Z,61.7
2018-04-02T12:42:35.625Z,61.22
2018-04-02T12:43:35.875Z,63.8
2018-04-02T12:44:35.976Z,63.7
2018-04-02T12:45:35.856Z,62.18
2018-04-02T12:46:35.849Z,60.56
2018-04-02T12:47:35.848Z,60.44
2018-04-02T12:48:35.570Z,61.38
2018-04-02T12:49:35.818Z,63.39
2018-04-02T12:50:35.809Z,64.62
2018-04-02T12:51:35.799Z,63.39
2018-04-02T12:52:35.792Z,63.67
2018-04-02T12:53:35.821Z,65
2018-04-02T12:54:35.513Z,67.57
2018-04-02T12:55:35.760Z,66.72